Hauptseite
METAR-TAF:

METAR-TAF

Flughäfen :

Neuburg, Deutschland

Fliegerhorst Neuburg

Breite: 48-43N, Länge: 011-13E, Höhe: 380 m

Beobachtung

Neuester Wetterbericht von vor 47 Minuten, um 10:20 UTC
Wind 3 kt aus Süd/Südost
Temperatur 7°C
Luftfeuchtigkeit 61%
Luftdruck 1009 hPa
Sichtweite 10 km oder mehr
Leicht bewölkt in der Höhe von 2500 ft

METAR: ETSN 271020Z 15003KT 9999 FEW025 07/00 Q1009 BLU+

Zeit: 12:07 (11:07 UTC)

Prognose

Neuester Wetterbericht von vor 2 Stunden und 32 Minuten, um 08:35 UTC
Gültige Prognose vom 27 um 09 UTC bis 27 um 18 UTC
Wind 5 kt aus Nord/Nordwest
Sichtweite 10 km oder mehr
Aufgelockert bewölkt in der Höhe von 12000 ft
Übergehend zu
vom 27 um 13 UTC bis 27 um 15 UTC
Wind 7 kt aus Süd
Sichtweite 10 km oder mehr
Durchbrochene Bewölkung in der Höhe von 12000 ft

TAF: ETSN 270835Z 2709/2718 33005KT 9999 NSW SCT120 BECMG 2713/2715 18007KT 9999 NSW BKN120 BY ETGL

Wetterbeobachtungen und Prognosen von mehr als 4000 Flughäfen (METAR und TAF Bericht).

Die verfügbaren Stationen werden durch gelbe und rote Markierungen auf der Karte dargestellt.

Führen Sie die Maus auf sie, um den Namen der Station zu sehen.

Darauf klicken, um die Beobachtung von Wetterbeobachtungen und Prognosen zu sehen.

Um die Karte zu ändern : klicken Sie auf den grünen Tasten mit einem schwarzen Kreuz Zum Vergrößern, auf den grünen Button mit einem Gedankenstrich zu verkleinern, oder auf die grünen Pfeile für benachbarte Karten.


METAR-TAF: